sensor_id;sensor_type;location;lat;lon;timestamp;temperature;humidity
14519;DHT22;7346;50.846;4.388;2022-09-06T00:00:37;19.90;99.90
14519;DHT22;7346;50.846;4.388;2022-09-06T00:03:05;19.90;99.90
14519;DHT22;7346;50.846;4.388;2022-09-06T00:05:33;19.90;99.90
14519;DHT22;7346;50.846;4.388;2022-09-06T00:08:00;19.90;99.90
14519;DHT22;7346;50.846;4.388;2022-09-06T00:10:30;20.00;99.90
14519;DHT22;7346;50.846;4.388;2022-09-06T00:13:00;19.90;99.90
14519;DHT22;7346;50.846;4.388;2022-09-06T00:15:27;19.80;99.90
14519;DHT22;7346;50.846;4.388;2022-09-06T00:17:57;19.80;99.90
14519;DHT22;7346;50.846;4.388;2022-09-06T00:20:25;19.70;99.90
14519;DHT22;7346;50.846;4.388;2022-09-06T00:22:55;19.70;99.90
14519;DHT22;7346;50.846;4.388;2022-09-06T00:25:22;19.50;99.90
14519;DHT22;7346;50.846;4.388;2022-09-06T00:27:54;19.50;99.90
14519;DHT22;7346;50.846;4.388;2022-09-06T00:30:21;19.60;99.90
14519;DHT22;7346;50.846;4.388;2022-09-06T00:32:48;19.60;99.90
14519;DHT22;7346;50.846;4.388;2022-09-06T00:35:15;19.50;99.90
14519;DHT22;7346;50.846;4.388;2022-09-06T00:37:42;19.50;99.90
14519;DHT22;7346;50.846;4.388;2022-09-06T00:40:10;19.50;99.90
14519;DHT22;7346;50.846;4.388;2022-09-06T00:42:36;19.60;99.90
14519;DHT22;7346;50.846;4.388;2022-09-06T00:45:06;19.50;99.90
14519;DHT22;7346;50.846;4.388;2022-09-06T00:47:34;19.40;99.90
14519;DHT22;7346;50.846;4.388;2022-09-06T00:50:03;19.40;99.90
14519;DHT22;7346;50.846;4.388;2022-09-06T00:52:31;19.50;99.90
14519;DHT22;7346;50.846;4.388;2022-09-06T00:54:59;19.60;99.90
14519;DHT22;7346;50.846;4.388;2022-09-06T00:57:27;19.50;99.90
14519;DHT22;7346;50.846;4.388;2022-09-06T00:59:57;19.40;99.90
14519;DHT22;7346;50.846;4.388;2022-09-06T01:02:25;19.30;99.90
14519;DHT22;7346;50.846;4.388;2022-09-06T01:04:53;19.20;99.90
14519;DHT22;7346;50.846;4.388;2022-09-06T01:07:30;19.20;99.90
14519;DHT22;7346;50.846;4.388;2022-09-06T01:10:19;19.10;99.90
14519;DHT22;7346;50.846;4.388;2022-09-06T01:12:54;19.20;99.90
14519;DHT22;7346;50.846;4.388;2022-09-06T01:15:34;19.30;99.90
14519;DHT22;7346;50.846;4.388;2022-09-06T01:18:17;19.30;99.90
14519;DHT22;7346;50.846;4.388;2022-09-06T01:20:56;19.20;99.90
14519;DHT22;7346;50.846;4.388;2022-09-06T01:24:00;19.20;99.90
14519;DHT22;7346;50.846;4.388;2022-09-06T01:26:46;19.20;99.90
14519;DHT22;7346;50.846;4.388;2022-09-06T01:29:26;19.10;99.90
14519;DHT22;7346;50.846;4.388;2022-09-06T01:32:02;19.00;99.90
14519;DHT22;7346;50.846;4.388;2022-09-06T01:34:36;19.00;99.90
14519;DHT22;7346;50.846;4.388;2022-09-06T01:37:07;19.00;99.90
14519;DHT22;7346;50.846;4.388;2022-09-06T01:39:38;19.00;99.90
14519;DHT22;7346;50.846;4.388;2022-09-06T01:42:11;19.00;99.90
14519;DHT22;7346;50.846;4.388;2022-09-06T01:44:42;18.90;99.90
14519;DHT22;7346;50.846;4.388;2022-09-06T01:47:20;18.90;99.90
14519;DHT22;7346;50.846;4.388;2022-09-06T01:49:59;18.90;99.90
14519;DHT22;7346;50.846;4.388;2022-09-06T01:52:33;18.90;99.90
14519;DHT22;7346;50.846;4.388;2022-09-06T01:55:16;18.90;99.90
14519;DHT22;7346;50.846;4.388;2022-09-06T01:58:02;18.90;99.90
14519;DHT22;7346;50.846;4.388;2022-09-06T02:00:40;18.80;99.90
14519;DHT22;7346;50.846;4.388;2022-09-06T02:03:15;18.80;99.90
14519;DHT22;7346;50.846;4.388;2022-09-06T02:05:49;18.80;99.90
14519;DHT22;7346;50.846;4.388;2022-09-06T02:08:20;18.80;99.90
14519;DHT22;7346;50.846;4.388;2022-09-06T02:10:51;18.90;99.90
14519;DHT22;7346;50.846;4.388;2022-09-06T02:13:22;18.90;99.90
14519;DHT22;7346;50.846;4.388;2022-09-06T02:15:55;18.80;99.90
14519;DHT22;7346;50.846;4.388;2022-09-06T02:18:26;18.70;99.90
14519;DHT22;7346;50.846;4.388;2022-09-06T02:20:57;18.70;99.90
14519;DHT22;7346;50.846;4.388;2022-09-06T02:23:28;18.70;99.90
14519;DHT22;7346;50.846;4.388;2022-09-06T02:26:00;18.70;99.90
14519;DHT22;7346;50.846;4.388;2022-09-06T02:28:28;18.70;99.90
14519;DHT22;7346;50.846;4.388;2022-09-06T02:31:00;18.70;99.90
14519;DHT22;7346;50.846;4.388;2022-09-06T02:33:30;18.70;99.90
14519;DHT22;7346;50.846;4.388;2022-09-06T02:36:03;18.70;99.90
14519;DHT22;7346;50.846;4.388;2022-09-06T02:38:33;18.70;99.90
14519;DHT22;7346;50.846;4.388;2022-09-06T02:41:01;18.70;99.90
14519;DHT22;7346;50.846;4.388;2022-09-06T02:43:28;18.80;99.90
14519;DHT22;7346;50.846;4.388;2022-09-06T02:45:57;18.80;99.90
14519;DHT22;7346;50.846;4.388;2022-09-06T02:48:24;18.80;99.90
14519;DHT22;7346;50.846;4.388;2022-09-06T02:50:51;18.80;99.90
14519;DHT22;7346;50.846;4.388;2022-09-06T02:53:17;18.80;99.90
14519;DHT22;7346;50.846;4.388;2022-09-06T02:55:45;18.90;99.90
14519;DHT22;7346;50.846;4.388;2022-09-06T02:58:14;18.80;99.90
14519;DHT22;7346;50.846;4.388;2022-09-06T03:00:41;18.90;99.90
14519;DHT22;7346;50.846;4.388;2022-09-06T03:03:10;18.90;99.90
14519;DHT22;7346;50.846;4.388;2022-09-06T03:05:37;18.90;99.90
14519;DHT22;7346;50.846;4.388;2022-09-06T03:08:04;18.90;99.90
14519;DHT22;7346;50.846;4.388;2022-09-06T03:10:31;18.90;99.90
14519;DHT22;7346;50.846;4.388;2022-09-06T03:12:57;18.90;99.90
14519;DHT22;7346;50.846;4.388;2022-09-06T03:15:24;18.90;99.90
14519;DHT22;7346;50.846;4.388;2022-09-06T03:17:56;18.90;99.90
14519;DHT22;7346;50.846;4.388;2022-09-06T03:20:25;18.70;99.90
14519;DHT22;7346;50.846;4.388;2022-09-06T03:22:52;18.60;99.90
14519;DHT22;7346;50.846;4.388;2022-09-06T03:25:18;18.60;99.90
14519;DHT22;7346;50.846;4.388;2022-09-06T03:27:46;18.60;99.90
14519;DHT22;7346;50.846;4.388;2022-09-06T03:30:13;18.50;99.90
14519;DHT22;7346;50.846;4.388;2022-09-06T03:32:40;18.50;99.90
14519;DHT22;7346;50.846;4.388;2022-09-06T03:35:07;18.60;99.90
14519;DHT22;7346;50.846;4.388;2022-09-06T03:37:36;18.70;99.90
14519;DHT22;7346;50.846;4.388;2022-09-06T03:40:04;18.80;99.90
14519;DHT22;7346;50.846;4.388;2022-09-06T03:42:31;18.90;99.90
14519;DHT22;7346;50.846;4.388;2022-09-06T03:44:58;18.80;99.90
14519;DHT22;7346;50.846;4.388;2022-09-06T03:47:25;18.80;99.90
14519;DHT22;7346;50.846;4.388;2022-09-06T03:49:52;18.90;99.90
14519;DHT22;7346;50.846;4.388;2022-09-06T03:52:18;19.00;99.90
14519;DHT22;7346;50.846;4.388;2022-09-06T03:54:47;19.00;99.90
14519;DHT22;7346;50.846;4.388;2022-09-06T03:57:14;19.00;99.90
14519;DHT22;7346;50.846;4.388;2022-09-06T03:59:40;18.90;99.90
14519;DHT22;7346;50.846;4.388;2022-09-06T04:02:07;18.90;99.90
14519;DHT22;7346;50.846;4.388;2022-09-06T04:04:34;18.90;99.90
14519;DHT22;7346;50.846;4.388;2022-09-06T04:07:01;19.00;99.90
14519;DHT22;7346;50.846;4.388;2022-09-06T04:09:28;19.10;99.90
14519;DHT22;7346;50.846;4.388;2022-09-06T04:11:56;19.00;99.90
14519;DHT22;7346;50.846;4.388;2022-09-06T04:14:23;19.10;99.90
14519;DHT22;7346;50.846;4.388;2022-09-06T04:16:50;19.10;99.90
14519;DHT22;7346;50.846;4.388;2022-09-06T04:19:17;19.10;99.90
14519;DHT22;7346;50.846;4.388;2022-09-06T04:21:44;19.00;99.90
14519;DHT22;7346;50.846;4.388;2022-09-06T04:24:11;19.00;99.90
14519;DHT22;7346;50.846;4.388;2022-09-06T04:26:38;19.00;99.90
14519;DHT22;7346;50.846;4.388;2022-09-06T04:29:06;19.00;99.90
14519;DHT22;7346;50.846;4.388;2022-09-06T04:31:33;18.90;99.90
14519;DHT22;7346;50.846;4.388;2022-09-06T04:34:00;18.90;99.90
14519;DHT22;7346;50.846;4.388;2022-09-06T04:36:27;18.90;99.90
14519;DHT22;7346;50.846;4.388;2022-09-06T04:38:54;18.80;99.90
14519;DHT22;7346;50.846;4.388;2022-09-06T04:41:21;18.80;99.90
14519;DHT22;7346;50.846;4.388;2022-09-06T04:43:48;18.70;99.90
14519;DHT22;7346;50.846;4.388;2022-09-06T04:46:19;18.60;99.90
14519;DHT22;7346;50.846;4.388;2022-09-06T04:48:47;18.60;99.90
14519;DHT22;7346;50.846;4.388;2022-09-06T04:51:14;18.60;99.90
14519;DHT22;7346;50.846;4.388;2022-09-06T04:53:41;18.60;99.90
14519;DHT22;7346;50.846;4.388;2022-09-06T04:56:13;18.60;99.90
14519;DHT22;7346;50.846;4.388;2022-09-06T04:58:41;18.50;99.90
14519;DHT22;7346;50.846;4.388;2022-09-06T05:01:08;18.50;99.90
14519;DHT22;7346;50.846;4.388;2022-09-06T05:03:37;18.40;99.90
14519;DHT22;7346;50.846;4.388;2022-09-06T05:06:05;18.50;99.90
14519;DHT22;7346;50.846;4.388;2022-09-06T05:08:32;18.50;99.90
14519;DHT22;7346;50.846;4.388;2022-09-06T05:10:59;18.40;99.90
14519;DHT22;7346;50.846;4.388;2022-09-06T05:13:29;18.50;99.90
14519;DHT22;7346;50.846;4.388;2022-09-06T05:15:59;18.50;99.90
14519;DHT22;7346;50.846;4.388;2022-09-06T05:18:26;18.50;99.90
14519;DHT22;7346;50.846;4.388;2022-09-06T05:20:57;18.50;99.90
14519;DHT22;7346;50.846;4.388;2022-09-06T05:23:25;18.50;99.90
14519;DHT22;7346;50.846;4.388;2022-09-06T05:25:52;18.50;99.90
14519;DHT22;7346;50.846;4.388;2022-09-06T05:28:19;18.60;99.90
14519;DHT22;7346;50.846;4.388;2022-09-06T05:30:46;18.60;99.90
14519;DHT22;7346;50.846;4.388;2022-09-06T05:33:18;18.70;99.90
14519;DHT22;7346;50.846;4.388;2022-09-06T05:35:46;18.80;99.90
14519;DHT22;7346;50.846;4.388;2022-09-06T05:38:14;18.70;99.90
14519;DHT22;7346;50.846;4.388;2022-09-06T05:40:41;18.70;99.90
14519;DHT22;7346;50.846;4.388;2022-09-06T05:43:08;18.70;99.90
14519;DHT22;7346;50.846;4.388;2022-09-06T05:45:35;18.70;99.90
14519;DHT22;7346;50.846;4.388;2022-09-06T05:48:02;18.80;99.90
14519;DHT22;7346;50.846;4.388;2022-09-06T05:50:29;18.80;99.90
14519;DHT22;7346;50.846;4.388;2022-09-06T05:52:56;18.80;99.90
14519;DHT22;7346;50.846;4.388;2022-09-06T05:55:33;18.80;99.90
14519;DHT22;7346;50.846;4.388;2022-09-06T05:58:06;18.90;99.90
14519;DHT22;7346;50.846;4.388;2022-09-06T06:00:38;19.00;99.90
14519;DHT22;7346;50.846;4.388;2022-09-06T06:03:07;19.00;99.90
14519;DHT22;7346;50.846;4.388;2022-09-06T06:05:39;19.00;99.90
14519;DHT22;7346;50.846;4.388;2022-09-06T06:08:06;19.10;99.90
14519;DHT22;7346;50.846;4.388;2022-09-06T06:10:34;19.20;99.90
14519;DHT22;7346;50.846;4.388;2022-09-06T06:13:03;19.20;99.90
14519;DHT22;7346;50.846;4.388;2022-09-06T06:15:30;19.30;99.90
14519;DHT22;7346;50.846;4.388;2022-09-06T06:17:58;19.40;99.90
14519;DHT22;7346;50.846;4.388;2022-09-06T06:20:26;19.50;99.90
14519;DHT22;7346;50.846;4.388;2022-09-06T06:22:53;19.50;99.90
14519;DHT22;7346;50.846;4.388;2022-09-06T06:25:20;19.50;99.90
14519;DHT22;7346;50.846;4.388;2022-09-06T06:27:52;19.60;99.90
14519;DHT22;7346;50.846;4.388;2022-09-06T06:30:19;19.70;99.90
14519;DHT22;7346;50.846;4.388;2022-09-06T06:32:46;19.70;99.90
14519;DHT22;7346;50.846;4.388;2022-09-06T06:35:13;19.70;99.90
14519;DHT22;7346;50.846;4.388;2022-09-06T06:37:40;19.80;99.90
14519;DHT22;7346;50.846;4.388;2022-09-06T06:40:08;19.90;99.90
14519;DHT22;7346;50.846;4.388;2022-09-06T06:42:35;20.00;99.90
14519;DHT22;7346;50.846;4.388;2022-09-06T06:45:04;20.10;99.90
14519;DHT22;7346;50.846;4.388;2022-09-06T06:47:31;20.10;99.90
14519;DHT22;7346;50.846;4.388;2022-09-06T06:49:58;20.20;99.90
14519;DHT22;7346;50.846;4.388;2022-09-06T06:52:25;20.10;99.90
14519;DHT22;7346;50.846;4.388;2022-09-06T06:54:51;20.30;99.90
14519;DHT22;7346;50.846;4.388;2022-09-06T06:57:18;20.40;99.90
14519;DHT22;7346;50.846;4.388;2022-09-06T06:59:45;20.30;99.90
14519;DHT22;7346;50.846;4.388;2022-09-06T07:02:14;20.30;99.90
14519;DHT22;7346;50.846;4.388;2022-09-06T07:04:42;20.20;99.90
14519;DHT22;7346;50.846;4.388;2022-09-06T07:07:09;20.30;99.90
14519;DHT22;7346;50.846;4.388;2022-09-06T07:09:36;20.30;99.90
14519;DHT22;7346;50.846;4.388;2022-09-06T07:12:03;20.40;99.90
14519;DHT22;7346;50.846;4.388;2022-09-06T07:14:30;20.40;99.90
14519;DHT22;7346;50.846;4.388;2022-09-06T07:16:57;20.50;99.90
14519;DHT22;7346;50.846;4.388;2022-09-06T07:19:25;20.50;99.90
14519;DHT22;7346;50.846;4.388;2022-09-06T07:21:52;20.60;99.90
14519;DHT22;7346;50.846;4.388;2022-09-06T07:24:21;20.60;99.90
14519;DHT22;7346;50.846;4.388;2022-09-06T07:26:48;20.60;99.90
14519;DHT22;7346;50.846;4.388;2022-09-06T07:29:15;20.70;99.90
14519;DHT22;7346;50.846;4.388;2022-09-06T07:31:42;20.70;99.90
14519;DHT22;7346;50.846;4.388;2022-09-06T07:34:09;20.70;99.90
14519;DHT22;7346;50.846;4.388;2022-09-06T07:36:37;20.70;99.90
14519;DHT22;7346;50.846;4.388;2022-09-06T07:39:04;20.70;99.90
14519;DHT22;7346;50.846;4.388;2022-09-06T07:41:31;20.80;99.90
14519;DHT22;7346;50.846;4.388;2022-09-06T07:43:58;20.80;99.90
14519;DHT22;7346;50.846;4.388;2022-09-06T07:46:25;20.80;99.90
14519;DHT22;7346;50.846;4.388;2022-09-06T07:48:52;20.90;99.90
14519;DHT22;7346;50.846;4.388;2022-09-06T07:51:20;21.00;99.90
14519;DHT22;7346;50.846;4.388;2022-09-06T07:53:50;21.00;99.90
14519;DHT22;7346;50.846;4.388;2022-09-06T07:56:18;21.00;99.90
14519;DHT22;7346;50.846;4.388;2022-09-06T07:58:46;21.10;99.90
14519;DHT22;7346;50.846;4.388;2022-09-06T08:01:23;21.10;99.90
14519;DHT22;7346;50.846;4.388;2022-09-06T08:03:50;21.20;99.90
14519;DHT22;7346;50.846;4.388;2022-09-06T08:06:17;21.30;99.90
14519;DHT22;7346;50.846;4.388;2022-09-06T08:08:44;21.30;99.90
14519;DHT22;7346;50.846;4.388;2022-09-06T08:11:13;21.40;99.90
14519;DHT22;7346;50.846;4.388;2022-09-06T08:13:40;21.40;99.90
14519;DHT22;7346;50.846;4.388;2022-09-06T08:16:09;21.40;99.90
14519;DHT22;7346;50.846;4.388;2022-09-06T08:18:37;21.50;99.90
14519;DHT22;7346;50.846;4.388;2022-09-06T08:21:08;21.50;99.90
14519;DHT22;7346;50.846;4.388;2022-09-06T08:23:36;21.60;99.90
14519;DHT22;7346;50.846;4.388;2022-09-06T08:26:04;21.60;99.90
14519;DHT22;7346;50.846;4.388;2022-09-06T08:28:32;21.80;99.90
14519;DHT22;7346;50.846;4.388;2022-09-06T08:31:06;21.90;99.90
14519;DHT22;7346;50.846;4.388;2022-09-06T08:33:34;22.00;99.90
14519;DHT22;7346;50.846;4.388;2022-09-06T08:36:01;22.10;99.90
14519;DHT22;7346;50.846;4.388;2022-09-06T08:38:28;22.10;99.90
14519;DHT22;7346;50.846;4.388;2022-09-06T08:41:05;22.10;99.90
14519;DHT22;7346;50.846;4.388;2022-09-06T08:43:35;22.20;99.90
14519;DHT22;7346;50.846;4.388;2022-09-06T08:46:03;22.50;99.90
14519;DHT22;7346;50.846;4.388;2022-09-06T08:48:34;22.60;99.90
14519;DHT22;7346;50.846;4.388;2022-09-06T08:51:28;22.70;99.90
14519;DHT22;7346;50.846;4.388;2022-09-06T08:54:07;22.70;99.90
14519;DHT22;7346;50.846;4.388;2022-09-06T08:56:41;22.80;99.90
14519;DHT22;7346;50.846;4.388;2022-09-06T08:59:13;22.70;99.90
14519;DHT22;7346;50.846;4.388;2022-09-06T09:01:47;22.80;99.90
14519;DHT22;7346;50.846;4.388;2022-09-06T09:04:21;22.80;99.90
14519;DHT22;7346;50.846;4.388;2022-09-06T09:06:52;22.90;99.90
14519;DHT22;7346;50.846;4.388;2022-09-06T09:09:21;23.10;99.90
14519;DHT22;7346;50.846;4.388;2022-09-06T09:11:49;23.20;99.90
14519;DHT22;7346;50.846;4.388;2022-09-06T09:14:21;23.30;99.90
14519;DHT22;7346;50.846;4.388;2022-09-06T09:16:51;23.30;99.90
14519;DHT22;7346;50.846;4.388;2022-09-06T09:19:18;23.40;99.90
14519;DHT22;7346;50.846;4.388;2022-09-06T09:21:45;23.40;99.90
14519;DHT22;7346;50.846;4.388;2022-09-06T09:24:13;23.40;99.90
14519;DHT22;7346;50.846;4.388;2022-09-06T09:26:48;23.60;99.90
14519;DHT22;7346;50.846;4.388;2022-09-06T09:29:18;23.70;99.90
14519;DHT22;7346;50.846;4.388;2022-09-06T09:31:47;23.80;99.90
14519;DHT22;7346;50.846;4.388;2022-09-06T09:34:27;23.80;99.90
14519;DHT22;7346;50.846;4.388;2022-09-06T09:37:09;23.80;99.90
14519;DHT22;7346;50.846;4.388;2022-09-06T09:39:37;23.80;99.90
14519;DHT22;7346;50.846;4.388;2022-09-06T09:42:06;23.80;99.90
14519;DHT22;7346;50.846;4.388;2022-09-06T09:44:35;23.80;99.90
14519;DHT22;7346;50.846;4.388;2022-09-06T09:47:22;23.80;99.90
14519;DHT22;7346;50.846;4.388;2022-09-06T09:49:49;23.80;99.90
14519;DHT22;7346;50.846;4.388;2022-09-06T09:52:23;23.80;99.90
14519;DHT22;7346;50.846;4.388;2022-09-06T09:54:54;23.80;99.90
14519;DHT22;7346;50.846;4.388;2022-09-06T09:57:22;23.90;99.90
14519;DHT22;7346;50.846;4.388;2022-09-06T09:59:52;24.10;99.90
14519;DHT22;7346;50.846;4.388;2022-09-06T10:02:24;24.10;99.90
14519;DHT22;7346;50.846;4.388;2022-09-06T10:04:59;24.10;99.90
14519;DHT22;7346;50.846;4.388;2022-09-06T10:07:27;24.20;99.90
14519;DHT22;7346;50.846;4.388;2022-09-06T10:09:59;24.20;99.90
14519;DHT22;7346;50.846;4.388;2022-09-06T10:12:28;24.10;99.90
14519;DHT22;7346;50.846;4.388;2022-09-06T10:14:57;24.00;99.90
14519;DHT22;7346;50.846;4.388;2022-09-06T10:17:31;24.00;99.90
14519;DHT22;7346;50.846;4.388;2022-09-06T10:20:03;24.00;99.90
14519;DHT22;7346;50.846;4.388;2022-09-06T10:22:42;24.10;99.90
14519;DHT22;7346;50.846;4.388;2022-09-06T10:25:38;24.30;99.90
14519;DHT22;7346;50.846;4.388;2022-09-06T10:28:29;24.60;99.90
14519;DHT22;7346;50.846;4.388;2022-09-06T10:31:22;24.70;99.90
14519;DHT22;7346;50.846;4.388;2022-09-06T10:34:01;24.60;99.90
14519;DHT22;7346;50.846;4.388;2022-09-06T10:36:34;24.70;99.90
14519;DHT22;7346;50.846;4.388;2022-09-06T10:39:05;24.80;99.90
14519;DHT22;7346;50.846;4.388;2022-09-06T10:41:45;24.80;99.90
14519;DHT22;7346;50.846;4.388;2022-09-06T10:44:24;24.80;99.90
14519;DHT22;7346;50.846;4.388;2022-09-06T10:47:00;25.00;99.90
14519;DHT22;7346;50.846;4.388;2022-09-06T10:49:29;25.10;99.90
14519;DHT22;7346;50.846;4.388;2022-09-06T10:52:00;25.30;99.90
14519;DHT22;7346;50.846;4.388;2022-09-06T10:54:29;25.40;99.90
14519;DHT22;7346;50.846;4.388;2022-09-06T10:57:03;25.40;99.90
14519;DHT22;7346;50.846;4.388;2022-09-06T10:59:35;25.50;99.90
14519;DHT22;7346;50.846;4.388;2022-09-06T11:02:14;25.50;99.90
14519;DHT22;7346;50.846;4.388;2022-09-06T11:04:45;25.40;99.90
14519;DHT22;7346;50.846;4.388;2022-09-06T11:07:23;25.40;99.90
14519;DHT22;7346;50.846;4.388;2022-09-06T11:09:56;25.30;99.90
14519;DHT22;7346;50.846;4.388;2022-09-06T11:12:31;25.30;99.90
14519;DHT22;7346;50.846;4.388;2022-09-06T11:15:02;25.40;99.90
14519;DHT22;7346;50.846;4.388;2022-09-06T11:17:35;25.60;99.90
14519;DHT22;7346;50.846;4.388;2022-09-06T11:20:07;25.70;99.90
14519;DHT22;7346;50.846;4.388;2022-09-06T11:22:59;25.80;99.90
14519;DHT22;7346;50.846;4.388;2022-09-06T11:25:53;25.80;99.90
14519;DHT22;7346;50.846;4.388;2022-09-06T11:28:28;25.80;99.90
14519;DHT22;7346;50.846;4.388;2022-09-06T11:30:57;25.60;99.90
14519;DHT22;7346;50.846;4.388;2022-09-06T11:33:28;25.50;99.90
14519;DHT22;7346;50.846;4.388;2022-09-06T11:36:17;25.70;99.90
14519;DHT22;7346;50.846;4.388;2022-09-06T11:38:53;25.80;99.90
14519;DHT22;7346;50.846;4.388;2022-09-06T11:41:21;25.90;99.90
14519;DHT22;7346;50.846;4.388;2022-09-06T11:43:54;26.10;99.90
14519;DHT22;7346;50.846;4.388;2022-09-06T11:47:01;26.30;99.90
14519;DHT22;7346;50.846;4.388;2022-09-06T11:49:37;26.30;99.90
14519;DHT22;7346;50.846;4.388;2022-09-06T11:55:09;26.60;99.90
14519;DHT22;7346;50.846;4.388;2022-09-06T11:57:38;26.50;99.90
14519;DHT22;7346;50.846;4.388;2022-09-06T12:00:06;26.40;99.90
14519;DHT22;7346;50.846;4.388;2022-09-06T12:02:42;26.40;99.90
14519;DHT22;7346;50.846;4.388;2022-09-06T12:05:30;26.40;99.90
14519;DHT22;7346;50.846;4.388;2022-09-06T12:08:30;26.40;99.90
14519;DHT22;7346;50.846;4.388;2022-09-06T12:13:52;26.60;99.90
14519;DHT22;7346;50.846;4.388;2022-09-06T12:16:20;26.60;99.90
14519;DHT22;7346;50.846;4.388;2022-09-06T12:18:56;26.80;99.90
14519;DHT22;7346;50.846;4.388;2022-09-06T12:21:48;27.00;99.90
14519;DHT22;7346;50.846;4.388;2022-09-06T12:27:25;27.20;99.90
14519;DHT22;7346;50.846;4.388;2022-09-06T12:29:58;27.20;99.90
14519;DHT22;7346;50.846;4.388;2022-09-06T12:32:28;27.40;99.90
14519;DHT22;7346;50.846;4.388;2022-09-06T12:34:57;27.40;99.90
14519;DHT22;7346;50.846;4.388;2022-09-06T12:37:34;27.50;99.90
14519;DHT22;7346;50.846;4.388;2022-09-06T12:40:05;27.50;99.90
14519;DHT22;7346;50.846;4.388;2022-09-06T12:42:33;27.50;99.90
14519;DHT22;7346;50.846;4.388;2022-09-06T12:45:05;27.60;99.90
14519;DHT22;7346;50.846;4.388;2022-09-06T12:47:34;27.90;99.90
14519;DHT22;7346;50.846;4.388;2022-09-06T12:50:07;27.80;99.90
14519;DHT22;7346;50.846;4.388;2022-09-06T12:52:44;27.70;99.90
14519;DHT22;7346;50.846;4.388;2022-09-06T12:55:19;27.70;99.90
14519;DHT22;7346;50.846;4.388;2022-09-06T12:57:47;27.70;99.90
14519;DHT22;7346;50.846;4.388;2022-09-06T13:00:16;27.80;99.90
14519;DHT22;7346;50.846;4.388;2022-09-06T13:02:52;27.80;99.90
14519;DHT22;7346;50.846;4.388;2022-09-06T13:05:21;28.10;99.90
14519;DHT22;7346;50.846;4.388;2022-09-06T13:07:51;28.00;99.90
14519;DHT22;7346;50.846;4.388;2022-09-06T13:10:23;27.80;99.90
14519;DHT22;7346;50.846;4.388;2022-09-06T13:12:55;27.60;99.90
14519;DHT22;7346;50.846;4.388;2022-09-06T13:15:25;27.60;99.90
14519;DHT22;7346;50.846;4.388;2022-09-06T13:20:42;27.90;99.90
14519;DHT22;7346;50.846;4.388;2022-09-06T13:23:11;28.00;99.90
14519;DHT22;7346;50.846;4.388;2022-09-06T13:25:46;28.10;99.90
14519;DHT22;7346;50.846;4.388;2022-09-06T13:28:23;27.80;99.90
14519;DHT22;7346;50.846;4.388;2022-09-06T13:31:02;27.80;99.90
14519;DHT22;7346;50.846;4.388;2022-09-06T13:33:32;27.90;99.90
14519;DHT22;7346;50.846;4.388;2022-09-06T13:36:15;28.00;99.90
14519;DHT22;7346;50.846;4.388;2022-09-06T13:38:45;27.80;99.90
14519;DHT22;7346;50.846;4.388;2022-09-06T13:41:38;27.90;99.90
14519;DHT22;7346;50.846;4.388;2022-09-06T13:44:19;27.90;99.90
14519;DHT22;7346;50.846;4.388;2022-09-06T13:46:54;27.90;99.90
14519;DHT22;7346;50.846;4.388;2022-09-06T13:49:21;28.00;99.90
14519;DHT22;7346;50.846;4.388;2022-09-06T13:51:49;28.40;99.90
14519;DHT22;7346;50.846;4.388;2022-09-06T13:54:18;28.50;99.90
14519;DHT22;7346;50.846;4.388;2022-09-06T13:56:47;28.60;99.90
14519;DHT22;7346;50.846;4.388;2022-09-06T13:59:15;28.70;99.90
14519;DHT22;7346;50.846;4.388;2022-09-06T14:01:45;29.10;99.90
14519;DHT22;7346;50.846;4.388;2022-09-06T14:04:14;29.00;99.90
14519;DHT22;7346;50.846;4.388;2022-09-06T14:06:46;28.80;99.90
14519;DHT22;7346;50.846;4.388;2022-09-06T14:09:14;28.60;99.90
14519;DHT22;7346;50.846;4.388;2022-09-06T14:11:42;28.50;99.90
14519;DHT22;7346;50.846;4.388;2022-09-06T14:14:09;28.60;99.90
14519;DHT22;7346;50.846;4.388;2022-09-06T14:16:36;28.80;99.90
14519;DHT22;7346;50.846;4.388;2022-09-06T14:19:04;28.80;99.90
14519;DHT22;7346;50.846;4.388;2022-09-06T14:21:31;28.90;99.90
14519;DHT22;7346;50.846;4.388;2022-09-06T14:23:58;29.10;99.90
14519;DHT22;7346;50.846;4.388;2022-09-06T14:26:26;29.40;99.90
14519;DHT22;7346;50.846;4.388;2022-09-06T14:28:55;29.20;99.90
14519;DHT22;7346;50.846;4.388;2022-09-06T14:31:23;29.00;99.90
14519;DHT22;7346;50.846;4.388;2022-09-06T14:33:52;29.10;99.90
14519;DHT22;7346;50.846;4.388;2022-09-06T14:36:21;29.10;99.70
14519;DHT22;7346;50.846;4.388;2022-09-06T14:38:49;29.00;99.90
14519;DHT22;7346;50.846;4.388;2022-09-06T14:41:16;28.70;99.30
14519;DHT22;7346;50.846;4.388;2022-09-06T14:43:47;28.30;99.80
14519;DHT22;7346;50.846;4.388;2022-09-06T14:46:17;28.30;99.90
14519;DHT22;7346;50.846;4.388;2022-09-06T14:48:44;28.20;99.90
14519;DHT22;7346;50.846;4.388;2022-09-06T14:51:13;28.20;99.90
14519;DHT22;7346;50.846;4.388;2022-09-06T14:53:43;28.20;99.90
14519;DHT22;7346;50.846;4.388;2022-09-06T14:56:11;28.10;99.90
14519;DHT22;7346;50.846;4.388;2022-09-06T14:58:39;28.10;99.90
14519;DHT22;7346;50.846;4.388;2022-09-06T15:01:11;28.10;99.90
14519;DHT22;7346;50.846;4.388;2022-09-06T15:03:41;28.00;99.90
14519;DHT22;7346;50.846;4.388;2022-09-06T15:06:09;28.20;99.90
14519;DHT22;7346;50.846;4.388;2022-09-06T15:08:36;28.30;99.90
14519;DHT22;7346;50.846;4.388;2022-09-06T15:11:05;28.40;99.90
14519;DHT22;7346;50.846;4.388;2022-09-06T15:13:33;28.40;99.90
14519;DHT22;7346;50.846;4.388;2022-09-06T15:16:01;28.20;99.90
14519;DHT22;7346;50.846;4.388;2022-09-06T15:18:28;28.20;99.90
14519;DHT22;7346;50.846;4.388;2022-09-06T15:20:57;28.10;99.90
14519;DHT22;7346;50.846;4.388;2022-09-06T15:23:26;28.10;99.90
14519;DHT22;7346;50.846;4.388;2022-09-06T15:25:53;28.10;99.90
14519;DHT22;7346;50.846;4.388;2022-09-06T15:28:20;28.20;99.90
14519;DHT22;7346;50.846;4.388;2022-09-06T15:30:47;28.10;99.90
14519;DHT22;7346;50.846;4.388;2022-09-06T15:33:14;28.00;99.90
14519;DHT22;7346;50.846;4.388;2022-09-06T15:35:41;27.80;99.90
14519;DHT22;7346;50.846;4.388;2022-09-06T15:38:12;27.90;99.90
14519;DHT22;7346;50.846;4.388;2022-09-06T15:40:39;27.90;99.90
14519;DHT22;7346;50.846;4.388;2022-09-06T15:43:05;28.00;99.90
14519;DHT22;7346;50.846;4.388;2022-09-06T15:45:45;28.00;99.90
14519;DHT22;7346;50.846;4.388;2022-09-06T15:48:13;28.00;99.90
14519;DHT22;7346;50.846;4.388;2022-09-06T15:50:44;28.00;99.90
14519;DHT22;7346;50.846;4.388;2022-09-06T15:53:12;28.00;99.90
14519;DHT22;7346;50.846;4.388;2022-09-06T15:55:39;28.10;99.90
14519;DHT22;7346;50.846;4.388;2022-09-06T15:58:21;28.30;99.90
14519;DHT22;7346;50.846;4.388;2022-09-06T16:01:02;28.30;99.90
14519;DHT22;7346;50.846;4.388;2022-09-06T16:03:30;28.40;99.90
14519;DHT22;7346;50.846;4.388;2022-09-06T16:06:01;28.50;99.90
14519;DHT22;7346;50.846;4.388;2022-09-06T16:08:30;28.40;99.90
14519;DHT22;7346;50.846;4.388;2022-09-06T16:10:57;28.50;99.90
14519;DHT22;7346;50.846;4.388;2022-09-06T16:13:31;28.40;99.90
14519;DHT22;7346;50.846;4.388;2022-09-06T16:15:58;28.60;99.90
14519;DHT22;7346;50.846;4.388;2022-09-06T16:18:26;28.70;99.90